Time;durP1;ratioP1;P1;durP2;ratioP2;P2;SDS_P1;SDS_P2;PMS_P1;PMS_P2;Temp;Humidity;BMP_temperature;BMP_pressure;BME280_temperature;BME280_humidity;BME280_pressure;Samples;Min_cycle;Max_cycle;Signal;HPM_P1;HPM_P2
2021/06/13 00:01:24;;;;;;;7.00;4.40;;;;;;;;;;5032523;28;20437;-77
2021/06/13 00:04:01;;;;;;;9.93;3.97;;;15.20;1.00;;;;;;5032419;28;20450;-77
2021/06/13 00:06:27;;;;;;;7.40;4.40;;;15.20;1.00;;;;;;5032814;28;20395;-77
2021/06/13 00:08:55;;;;;;;12.30;4.37;;;15.10;1.00;;;;;;5032955;28;20395;-77
2021/06/13 00:11:25;;;;;;;12.33;4.47;;;15.10;1.00;;;;;;5033187;28;20200;-77
2021/06/13 00:14:08;;;;;;;8.23;4.10;;;15.00;1.00;;;;;;5033163;28;20401;-77
2021/06/13 00:19:36;;;;;;;8.53;3.80;;;15.00;1.00;;;;;;5032819;28;20406;-77
2021/06/13 00:25:54;;;;;;;7.63;4.07;;;14.90;1.00;;;;;;5034837;28;20307;-77
2021/06/13 00:31:41;;;;;;;7.00;4.10;;;14.80;1.00;;;;;;5039285;28;20379;-77
2021/06/13 00:34:12;;;;;;;8.10;4.23;;;14.70;1.00;;;;;;5056514;28;20395;-77
2021/06/13 00:40:00;;;;;;;5.53;3.80;;;14.60;1.00;;;;;;5048259;28;20409;-75
2021/06/13 00:42:37;;;;;;;8.90;4.60;;;14.60;1.00;;;;;;5036290;28;20392;-75
2021/06/13 00:45:08;;;;;;;10.67;4.30;;;14.60;1.00;;;;;;5036394;28;20458;-76
2021/06/13 00:47:37;;;;;;;21.60;5.40;;;14.50;1.00;;;;;;5036644;28;20399;-76
2021/06/13 00:50:42;;;;;;;5.57;3.90;;;14.40;1.00;;;;;;5036811;28;20832;-76
2021/06/13 00:53:09;;;;;;;4.87;3.90;;;14.40;1.00;;;;;;5036786;28;20362;-77
2021/06/13 00:55:43;;;;;;;9.50;4.13;;;14.40;1.00;;;;;;5049826;28;20426;-77
2021/06/13 00:58:09;;;;;;;13.13;4.30;;;;;;;;;;5055708;28;20456;-77
2021/06/13 01:00:43;;;;;;;8.07;3.80;;;14.30;1.00;;;;;;5056165;28;20386;-77
2021/06/13 01:03:36;;;;;;;15.57;4.23;;;;;;;;;;5055935;28;20440;-78
2021/06/13 01:09:31;;;;;;;10.33;4.20;;;14.10;1.00;;;;;;5049029;28;20449;-76
2021/06/13 01:12:03;;;;;;;5.53;3.83;;;;;;;;;;5036099;28;20388;-75
2021/06/13 01:17:50;;;;;;;9.80;4.03;;;14.00;1.00;;;;;;5035953;28;20444;-76
2021/06/13 01:20:45;;;;;;;17.37;4.60;;;14.00;1.00;;;;;;5036238;28;20854;-76
2021/06/13 01:23:49;;;;;;;22.07;4.43;;;13.90;1.00;;;;;;5036358;28;20149;-77
2021/06/13 01:26:25;;;;;;;6.77;3.60;;;;;;;;;;5014047;28;20435;-77
2021/06/13 01:32:30;;;;;;;4.00;3.60;;;13.90;1.00;;;;;;5013414;28;20817;-77
2021/06/13 01:35:16;;;;;;;4.93;3.90;;;13.80;1.00;;;;;;5013576;28;20454;-77
2021/06/13 01:38:02;;;;;;;8.23;4.10;;;13.80;1.00;;;;;;5013328;28;20423;-77
2021/06/13 01:40:31;;;;;;;15.57;4.80;;;13.80;1.00;;;;;;4994564;28;21181;-76
2021/06/13 01:42:59;;;;;;;4.50;3.53;;;13.80;1.00;;;;;;4993923;28;20388;-77
2021/06/13 01:45:30;;;;;;;15.67;3.50;;;13.70;1.00;;;;;;4993982;28;21173;-75
2021/06/13 01:48:08;;;;;;;5.73;3.67;;;13.70;1.00;;;;;;4993537;28;20943;-75
2021/06/13 01:50:50;;;;;;;15.37;3.73;;;13.70;1.00;;;;;;4993982;28;20413;-75
2021/06/13 01:53:20;;;;;;;6.47;4.00;;;13.70;1.00;;;;;;4997602;28;20428;-77
2021/06/13 01:59:09;;;;;;;7.70;4.00;;;13.70;1.00;;;;;;5013136;28;20443;-77
2021/06/13 02:01:36;;;;;;;10.03;4.23;;;13.60;1.00;;;;;;5022541;28;20434;-78
2021/06/13 02:04:54;;;;;;;3.93;3.57;;;13.60;1.00;;;;;;5035165;28;20757;-78
2021/06/13 02:10:42;;;;;;;12.80;4.80;;;13.60;1.00;;;;;;5035114;28;20546;-76
2021/06/13 02:13:14;;;;;;;6.63;4.03;;;13.60;1.00;;;;;;5035099;28;20475;-76
2021/06/13 02:15:44;;;;;;;4.43;3.10;;;;;;;;;;5035416;28;20395;-76
2021/06/13 02:18:13;;;;;;;5.37;3.93;;;13.50;1.00;;;;;;5034665;28;20391;-76
2021/06/13 02:20:49;;;;;;;9.50;4.20;;;13.60;1.00;;;;;;5034763;28;20887;-76
2021/06/13 02:23:31;;;;;;;10.43;4.10;;;13.60;1.00;;;;;;5034887;28;20426;-77
2021/06/13 02:26:36;;;;;;;8.93;4.00;;;13.60;1.00;;;;;;5034787;28;20473;-78
2021/06/13 02:29:15;;;;;;;7.33;4.23;;;13.60;1.00;;;;;;5034740;28;20462;-77
2021/06/13 02:35:07;;;;;;;11.80;4.30;;;13.60;1.00;;;;;;5034259;28;20425;-77
2021/06/13 02:38:06;;;;;;;6.60;3.90;;;13.60;1.00;;;;;;5033305;28;20427;-78
2021/06/13 02:40:44;;;;;;;8.20;4.30;;;13.60;1.00;;;;;;5034525;28;20399;-75
2021/06/13 02:43:10;;;;;;;7.77;4.13;;;13.60;1.00;;;;;;5034628;28;20401;-76
2021/06/13 02:45:36;;;;;;;11.07;3.60;;;;;;;;;;5034399;28;20481;-76
2021/06/13 02:48:13;;;;;;;13.80;4.33;;;13.70;1.00;;;;;;5033343;28;20384;-76
2021/06/13 02:51:14;;;;;;;7.37;3.60;;;13.70;1.00;;;;;;5034499;28;20438;-76
2021/06/13 02:53:46;;;;;;;13.03;4.33;;;13.70;1.00;;;;;;5034379;28;20421;-76
2021/06/13 02:56:59;;;;;;;12.37;3.80;;;13.70;1.00;;;;;;5034358;28;20419;-77
2021/06/13 02:59:49;;;;;;;20.47;4.80;;;13.70;1.00;;;;;;4997389;28;20446;-77
2021/06/13 03:02:50;;;;;;;8.10;3.17;;;13.80;1.00;;;;;;5011970;28;20857;-77
2021/06/13 03:05:49;;;;;;;25.93;5.20;;;13.80;1.00;;;;;;5012166;28;20855;-77
2021/06/13 03:08:25;;;;;;;5.37;3.23;;;;;;;;;;5011311;28;21045;-77
2021/06/13 03:14:20;;;;;;;10.40;4.07;;;13.70;1.00;;;;;;5011909;28;20415;-77
2021/06/13 03:17:06;;;;;;;9.40;3.30;;;13.70;1.00;;;;;;5012133;28;20423;-77
2021/06/13 03:20:08;;;;;;;6.93;3.50;;;13.60;1.00;;;;;;5011811;28;20439;-78
2021/06/13 03:22:55;;;;;;;10.80;3.80;;;13.60;1.00;;;;;;4995172;28;20431;-77
2021/06/13 03:25:25;;;;;;;7.83;3.80;;;13.60;1.00;;;;;;5011766;28;20489;-77
2021/06/13 03:28:36;;;;;;;12.23;3.80;;;13.50;1.00;;;;;;5002501;28;20420;-77
2021/06/13 03:31:07;;;;;;;3.70;3.33;;;;;;;;;;5027096;28;20908;-77
2021/06/13 03:33:54;;;;;;;9.10;3.57;;;13.50;1.00;;;;;;5033344;28;20387;-77
2021/06/13 03:36:21;;;;;;;23.03;5.20;;;13.50;1.00;;;;;;5032727;28;20395;-77
2021/06/13 03:38:55;;;;;;;9.27;3.60;;;13.40;1.00;;;;;;5033306;28;20401;-78
2021/06/13 03:41:31;;;;;;;6.70;3.50;;;13.50;1.00;;;;;;5033705;28;20403;-76
2021/06/13 03:44:31;;;;;;;6.97;3.93;;;13.50;1.00;;;;;;5033335;28;20546;-76
2021/06/13 03:47:26;;;;;;;6.47;3.90;;;13.50;1.00;;;;;;5033593;28;20441;-76
2021/06/13 03:50:24;;;;;;;9.10;3.53;;;13.40;1.00;;;;;;5033415;28;20407;-76
2021/06/13 03:52:55;;;;;;;13.30;3.90;;;13.50;1.00;;;;;;5041994;28;20404;-76
2021/06/13 03:55:42;;;;;;;18.50;4.37;;;13.50;1.00;;;;;;5053262;28;20390;-77
2021/06/13 03:58:09;;;;;;;10.23;3.30;;;13.50;1.00;;;;;;5053038;28;20719;-77
2021/06/13 04:00:38;;;;;;;4.37;3.40;;;13.50;1.00;;;;;;5056578;28;20398;-78
2021/06/13 04:03:20;;;;;;;11.00;4.10;;;;;;;;;;5057438;28;20399;-77
2021/06/13 04:09:25;;;;;;;9.23;4.03;;;13.40;1.00;;;;;;5056704;28;20421;-77
2021/06/13 04:12:09;;;;;;;11.80;3.70;;;13.40;1.00;;;;;;5056131;28;20418;-77
2021/06/13 04:14:35;;;;;;;18.47;4.90;;;13.40;1.00;;;;;;5056900;28;20405;-77
2021/06/13 04:17:26;;;;;;;12.40;4.20;;;13.40;1.00;;;;;;5057018;28;20451;-77
2021/06/13 04:20:42;;;;;;;9.10;4.00;;;13.40;1.00;;;;;;5057153;28;20404;-77
2021/06/13 04:23:12;;;;;;;22.53;4.53;;;13.40;1.00;;;;;;5056898;28;20473;-77
2021/06/13 04:26:07;;;;;;;9.63;4.20;;;13.50;1.00;;;;;;5057111;28;20511;-77
2021/06/13 04:28:33;;;;;;;9.77;3.87;;;13.50;1.00;;;;;;5056516;28;20854;-77
2021/06/13 04:31:25;;;;;;;8.17;4.00;;;13.50;1.00;;;;;;5056913;28;20401;-77
2021/06/13 04:33:51;;;;;;;8.60;3.80;;;13.50;1.00;;;;;;5056661;28;20160;-77
2021/06/13 04:36:18;;;;;;;6.93;3.70;;;13.50;1.00;;;;;;5056342;28;20390;-77
2021/06/13 04:38:54;;;;;;;8.53;3.50;;;13.50;1.00;;;;;;5057123;28;20180;-77
2021/06/13 04:41:25;;;;;;;9.60;3.60;;;13.50;1.00;;;;;;5056624;28;20870;-77
2021/06/13 04:44:24;;;;;;;6.80;4.03;;;13.60;1.00;;;;;;5056175;28;20430;-77
2021/06/13 04:46:55;;;;;;;4.27;3.30;;;;;;;;;;5056617;28;20725;-77
2021/06/13 04:49:25;;;;;;;8.37;3.67;;;;;;;;;;5056448;28;20385;-78
2021/06/13 04:51:57;;;;;;;9.43;4.17;;;13.80;1.00;;;;;;5055890;28;20383;-77
2021/06/13 04:54:46;;;;;;;12.33;3.70;;;13.80;1.00;;;;;;5056583;28;20481;-77
2021/06/13 04:57:25;;;;;;;6.53;3.40;;;;;;;;;;5055079;28;20780;-76
2021/06/13 04:59:51;;;;;;;11.90;4.20;;;14.00;1.00;;;;;;5055937;28;20424;-76
2021/06/13 05:02:16;;;;;;;11.43;3.87;;;14.00;1.00;;;;;;5056429;28;20402;-76
2021/06/13 05:04:43;;;;;;;6.10;3.80;;;14.10;1.00;;;;;;5055519;28;20199;-76
2021/06/13 05:07:09;;;;;;;13.30;4.67;;;14.20;1.00;;;;;;5055104;28;20823;-76
2021/06/13 05:09:35;;;;;;;11.37;3.50;;;14.20;1.00;;;;;;5055143;28;20438;-76
2021/06/13 05:12:24;;;;;;;5.23;3.53;;;14.30;1.00;;;;;;5055906;28;20402;-76
2021/06/13 05:15:12;;;;;;;13.07;4.70;;;14.30;1.00;;;;;;5056434;28;20218;-76
2021/06/13 05:17:43;;;;;;;17.50;3.70;;;14.40;1.00;;;;;;5054382;28;20804;-76
2021/06/13 05:20:14;;;;;;;8.57;3.70;;;14.50;1.00;;;;;;5055863;28;20907;-76
2021/06/13 05:23:00;;;;;;;6.17;3.47;;;14.60;1.00;;;;;;5055745;28;20490;-76
2021/06/13 05:25:29;;;;;;;13.80;3.87;;;14.70;1.00;;;;;;5056109;28;20464;-77
2021/06/13 05:28:02;;;;;;;13.27;4.17;;;14.70;1.00;;;;;;5055615;28;20456;-77
2021/06/13 05:30:30;;;;;;;20.83;5.03;;;14.80;1.00;;;;;;5055154;28;20431;-78
2021/06/13 05:32:56;;;;;;;5.90;3.30;;;14.90;1.00;;;;;;5055428;28;20454;-77
2021/06/13 05:35:25;;;;;;;10.80;3.93;;;14.90;1.00;;;;;;5055014;28;20497;-78
2021/06/13 05:37:55;;;;;;;5.67;3.17;;;15.00;1.00;;;;;;5055433;28;20641;-78
2021/06/13 05:40:28;;;;;;;9.07;3.73;;;15.00;1.00;;;;;;5055486;28;20759;-77
2021/06/13 05:42:55;;;;;;;3.57;3.20;;;15.00;1.00;;;;;;5055481;28;20759;-77
2021/06/13 05:45:38;;;;;;;10.70;4.13;;;15.10;1.00;;;;;;5055194;28;20420;-77
2021/06/13 05:48:25;;;;;;;11.03;4.20;;;15.20;1.00;;;;;;5055295;28;20390;-77
2021/06/13 05:50:55;;;;;;;8.60;3.00;;;15.30;1.00;;;;;;5055282;28;20477;-77
2021/06/13 05:53:25;;;;;;;5.37;2.90;;;15.30;1.00;;;;;;5053935;28;20406;-78
2021/06/13 05:55:55;;;;;;;13.50;4.00;;;15.40;1.00;;;;;;5045345;28;20415;-76
2021/06/13 05:58:25;;;;;;;13.30;4.17;;;15.50;1.00;;;;;;5049770;28;20433;-77
2021/06/13 06:04:54;;;;;;;7.93;3.00;;;15.80;1.00;;;;;;5054398;28;21007;-80
2021/06/13 06:07:25;;;;;;;10.07;3.90;;;16.00;1.00;;;;;;5054629;28;20394;-80
2021/06/13 06:09:55;;;;;;;7.80;3.20;;;16.10;1.00;;;;;;5048557;28;20847;-80
2021/06/13 06:12:25;;;;;;;17.17;4.50;;;;;;;;;;5033894;28;20381;-77
2021/06/13 06:14:51;;;;;;;24.90;4.93;;;16.40;1.00;;;;;;5033976;28;20450;-75
2021/06/13 06:17:43;;;;;;;8.30;3.03;;;16.40;1.00;;;;;;5034180;28;20460;-77
2021/06/13 06:20:22;;;;;;;17.07;4.20;;;16.50;1.00;;;;;;5034525;28;20376;-77
2021/06/13 06:22:50;;;;;;;10.00;3.83;;;16.60;1.00;;;;;;5033486;28;20486;-77
2021/06/13 06:25:26;;;;;;;7.40;2.90;;;16.70;1.00;;;;;;5034845;28;20538;-77
2021/06/13 06:27:55;;;;;;;4.90;3.10;;;16.70;1.00;;;;;;5035378;28;20385;-74
2021/06/13 06:30:26;;;;;;;19.23;4.53;;;16.80;1.00;;;;;;5034631;28;20370;-76
2021/06/13 06:32:55;;;;;;;5.40;3.30;;;16.80;1.00;;;;;;5034377;28;20432;-75
2021/06/13 06:35:31;;;;;;;18.50;4.47;;;16.80;1.00;;;;;;5034257;28;20426;-75
2021/06/13 06:38:01;;;;;;;26.03;4.77;;;17.00;1.00;;;;;;5034404;28;20426;-76
2021/06/13 06:40:31;;;;;;;19.83;4.27;;;17.10;1.00;;;;;;5054212;28;20766;-75
2021/06/13 06:43:13;;;;;;;13.83;3.43;;;;;;;;;;5054008;28;20393;-79
2021/06/13 06:45:43;;;;;;;12.53;3.80;;;17.30;1.00;;;;;;5052416;28;20459;-76
2021/06/13 06:48:09;;;;;;;11.80;3.77;;;;;;;;;;5053910;28;20434;-76
2021/06/13 06:50:49;;;;;;;9.97;3.17;;;17.60;1.00;;;;;;5053267;28;20755;-75
2021/06/13 06:53:25;;;;;;;9.63;3.37;;;17.70;1.00;;;;;;5053585;28;20402;-75
2021/06/13 06:56:13;;;;;;;27.07;4.80;;;17.80;1.00;;;;;;5041223;28;20387;-75
2021/06/13 06:58:56;;;;;;;17.33;4.00;;;18.00;1.00;;;;;;5033692;28;20371;-75
2021/06/13 07:01:25;;;;;;;10.93;3.37;;;18.00;1.00;;;;;;5034000;28;20458;-75
2021/06/13 07:04:07;;;;;;;34.60;6.83;;;;;;;;;;5033913;28;20392;-75
2021/06/13 07:06:43;;;;;;;12.57;4.23;;;;;;;;;;5035610;28;21091;-75
2021/06/13 07:09:19;;;;;;;9.10;3.27;;;;;;;;;;5052963;28;20366;-76
2021/06/13 07:11:55;;;;;;;15.57;3.63;;;;;;;;;;5053938;28;20866;-74
2021/06/13 07:14:25;;;;;;;10.50;3.47;;;18.20;1.00;;;;;;5053468;28;20396;-75
2021/06/13 07:16:55;;;;;;;6.50;3.30;;;18.20;1.00;;;;;;5053461;28;20392;-74
2021/06/13 07:22:42;;;;;;;8.97;3.73;;;18.10;1.00;;;;;;5053254;28;20812;-83
2021/06/13 07:29:12;;;;;;;11.50;3.27;;;18.10;1.00;;;;;;5053706;28;20157;-83
2021/06/13 07:35:54;;;;;;;10.43;3.20;;;18.50;1.00;;;;;;5053183;28;20460;-83
2021/06/13 07:38:42;;;;;;;22.07;4.10;;;18.70;1.00;;;;;;5053598;28;20410;-83
2021/06/13 07:54:43;;;;;;;7.70;3.27;;;19.70;1.00;;;;;;5033222;28;20404;-82
2021/06/13 07:57:30;;;;;;;9.80;2.80;;;19.90;1.00;;;;;;5031981;28;20429;-83
2021/06/13 07:59:56;;;;;;;9.10;2.90;;;;;;;;;;5031825;28;20520;-83
2021/06/13 08:06:07;;;;;;;7.13;3.30;;;20.20;1.00;;;;;;5040715;28;20527;-82
2021/06/13 08:08:37;;;;;;;15.47;3.33;;;;;;;;;;5068282;28;20760;-83
2021/06/13 08:11:54;;;;;;;13.40;3.47;;;20.20;1.00;;;;;;5048387;28;20739;-83
2021/06/13 08:14:42;;;;;;;12.97;3.07;;;;;;;;;;5031340;28;20389;-82
2021/06/13 08:17:08;;;;;;;11.00;3.23;;;;;;;;;;5032744;28;20430;-82
2021/06/13 08:19:49;;;;;;;7.60;3.20;;;;;;;;;;5031592;28;20413;-82
2021/06/13 08:22:26;;;;;;;8.90;3.20;;;;;;;;;;5031625;28;20410;-76
2021/06/13 08:25:36;;;;;;;14.87;3.60;;;19.50;1.00;;;;;;5032935;28;20451;-81
2021/06/13 08:28:19;;;;;;;12.03;3.10;;;;;;;;;;5033099;28;20884;-80
2021/06/13 08:30:46;;;;;;;11.63;3.83;;;19.50;1.00;;;;;;5032553;28;20523;-75
2021/06/13 08:33:14;;;;;;;15.23;4.00;;;;;;;;;;5032743;28;20401;-75
2021/06/13 08:35:49;;;;;;;10.73;3.50;;;19.60;1.00;;;;;;5032721;28;20393;-75
2021/06/13 08:38:21;;;;;;;16.67;3.17;;;;;;;;;;5033091;28;20765;-75
2021/06/13 08:40:49;;;;;;;14.40;3.60;;;19.80;1.00;;;;;;5032638;28;20391;-75
2021/06/13 08:47:30;;;;;;;5.90;2.90;;;20.00;1.00;;;;;;5034665;28;20364;-78
2021/06/13 08:50:01;;;;;;;11.53;3.27;;;;;;;;;;5035943;28;20418;-78
2021/06/13 08:52:43;;;;;;;12.13;3.63;;;;;;;;;;5036104;28;20362;-78
2021/06/13 08:55:42;;;;;;;16.57;2.90;;;20.10;1.00;;;;;;5035549;28;20430;-78
2021/06/13 08:58:10;;;;;;;22.30;3.57;;;20.00;1.00;;;;;;5035044;28;20381;-80
2021/06/13 09:00:55;;;;;;;9.73;2.70;;;;;;;;;;5070319;28;20548;-79
2021/06/13 09:03:25;;;;;;;7.47;2.97;;;20.10;1.00;;;;;;5054929;28;20405;-74
2021/06/13 09:05:54;;;;;;;12.43;4.00;;;20.20;1.00;;;;;;5046504;28;20481;-75
2021/06/13 09:08:20;;;;;;;7.43;2.93;;;;;;;;;;5054946;28;20422;-74
2021/06/13 09:10:47;;;;;;;6.10;3.53;;;20.10;1.00;;;;;;5054535;28;20463;-74
2021/06/13 09:13:19;;;;;;;5.63;2.63;;;20.20;1.00;;;;;;5053395;28;20464;-74
2021/06/13 09:15:56;;;;;;;10.80;3.47;;;20.30;1.00;;;;;;5055094;28;20411;-74
2021/06/13 09:18:37;;;;;;;6.90;3.00;;;20.40;1.00;;;;;;5053441;28;20443;-74
2021/06/13 09:21:29;;;;;;;17.70;3.73;;;20.40;1.00;;;;;;5054630;28;20450;-74
2021/06/13 09:23:56;;;;;;;11.57;3.63;;;;;;;;;;5053189;28;20424;-75
2021/06/13 09:26:30;;;;;;;3.90;3.00;;;20.50;1.00;;;;;;5054711;28;20365;-75
2021/06/13 09:28:59;;;;;;;6.60;3.40;;;20.50;1.00;;;;;;5054422;28;20409;-75
2021/06/13 09:31:27;;;;;;;6.30;2.77;;;20.50;1.00;;;;;;5054271;28;20361;-75
2021/06/13 09:33:58;;;;;;;10.83;3.67;;;20.70;1.00;;;;;;5054530;28;20370;-75
2021/06/13 09:36:29;;;;;;;14.07;3.80;;;20.70;1.00;;;;;;5053192;28;20430;-74
2021/06/13 09:39:07;;;;;;;13.87;3.60;;;20.80;1.00;;;;;;5054487;28;20396;-74
2021/06/13 09:41:45;;;;;;;4.37;2.90;;;21.00;1.00;;;;;;5054247;28;20424;-74
2021/06/13 09:44:19;;;;;;;15.90;3.73;;;21.10;1.00;;;;;;5055465;28;20450;-76
2021/06/13 09:46:53;;;;;;;12.33;3.30;;;21.10;1.00;;;;;;5055343;28;20438;-75
2021/06/13 09:49:54;;;;;;;3.63;2.50;;;21.20;1.00;;;;;;5055530;28;20733;-74
2021/06/13 09:52:37;;;;;;;7.67;2.83;;;21.40;1.00;;;;;;5055162;28;20444;-74
2021/06/13 09:55:10;;;;;;;25.57;4.37;;;21.30;1.00;;;;;;5054382;28;20952;-75
2021/06/13 09:58:06;;;;;;;7.57;3.10;;;21.40;1.00;;;;;;5054842;28;20433;-75
2021/06/13 10:00:37;;;;;;;16.07;4.13;;;;;;;;;;5054545;28;20398;-75
2021/06/13 10:03:24;;;;;;;20.33;3.20;;;21.50;1.00;;;;;;5053841;28;20400;-75
2021/06/13 10:05:57;;;;;;;8.80;3.00;;;21.50;1.00;;;;;;5054757;28;20445;-75
2021/06/13 10:08:27;;;;;;;18.70;3.27;;;21.70;1.00;;;;;;5054344;28;20470;-75
2021/06/13 10:10:59;;;;;;;6.90;3.30;;;21.80;1.00;;;;;;5054597;28;20434;-75
2021/06/13 10:13:47;;;;;;;7.00;3.00;;;21.80;1.00;;;;;;5050165;28;20415;-75
2021/06/13 10:16:50;;;;;;;9.50;3.50;;;21.90;1.00;;;;;;5055542;28;20423;-78
2021/06/13 10:20:06;;;;;;;8.20;3.47;;;21.80;1.00;;;;;;5056793;28;20403;-77
2021/06/13 10:23:12;;;;;;;17.07;3.83;;;21.80;1.00;;;;;;5054301;28;20486;-77
2021/06/13 10:25:43;;;;;;;6.70;3.60;;;21.70;1.00;;;;;;5055026;28;20914;-78
2021/06/13 10:28:48;;;;;;;6.17;2.90;;;21.80;1.00;;;;;;5054445;28;20510;-77
2021/06/13 10:31:14;;;;;;;7.43;3.00;;;21.90;1.00;;;;;;5054072;28;20417;-77
2021/06/13 10:33:41;;;;;;;9.23;2.83;;;21.90;1.00;;;;;;5054353;28;20398;-78
2021/06/13 10:36:19;;;;;;;20.03;3.70;;;22.00;1.00;;;;;;5053996;28;20171;-78
2021/06/13 10:39:03;;;;;;;13.30;3.53;;;22.20;1.00;;;;;;5054288;28;20895;-77
2021/06/13 10:41:55;;;;;;;7.70;3.00;;;22.30;1.00;;;;;;5053968;28;20408;-78
2021/06/13 10:44:42;;;;;;;14.33;3.97;;;22.30;1.00;;;;;;5054158;28;20449;-78
2021/06/13 10:47:32;;;;;;;8.23;3.43;;;22.40;1.00;;;;;;5053923;28;20516;-78
2021/06/13 10:50:34;;;;;;;13.50;3.57;;;22.40;1.00;;;;;;5054044;28;20490;-78
2021/06/13 10:53:02;;;;;;;4.97;2.90;;;;;;;;;;5054030;28;20392;-77
2021/06/13 10:55:47;;;;;;;7.13;3.00;;;22.50;1.00;;;;;;5053621;28;20397;-77
2021/06/13 10:58:59;;;;;;;16.93;4.40;;;22.50;1.00;;;;;;5052608;28;20889;-77
2021/06/13 11:01:38;;;;;;;14.50;3.30;;;22.50;1.00;;;;;;5054337;28;20413;-77
2021/06/13 11:04:07;;;;;;;6.40;3.60;;;22.60;1.00;;;;;;5053771;28;20484;-78
2021/06/13 11:06:40;;;;;;;15.90;3.43;;;22.60;1.00;;;;;;5043665;28;20421;-78
2021/06/13 11:09:17;;;;;;;6.03;2.97;;;22.50;1.00;;;;;;5053256;28;20431;-77
2021/06/13 11:11:55;;;;;;;6.07;3.10;;;22.70;1.00;;;;;;5053779;28;20397;-77
2021/06/13 11:15:12;;;;;;;6.80;2.80;;;22.80;1.00;;;;;;5053887;28;20808;-77
2021/06/13 11:18:01;;;;;;;22.57;4.47;;;22.90;1.00;;;;;;5053591;28;20397;-74
2021/06/13 11:20:47;;;;;;;4.63;2.87;;;22.90;1.00;;;;;;5053467;28;20447;-74
2021/06/13 11:23:22;;;;;;;6.97;2.80;;;23.00;1.00;;;;;;5053398;28;20413;-74
2021/06/13 11:25:49;;;;;;;7.60;3.20;;;23.10;1.00;;;;;;5053399;28;20448;-74
2021/06/13 11:28:30;;;;;;;10.80;3.70;;;23.20;1.00;;;;;;5053263;28;21172;-75
2021/06/13 11:31:07;;;;;;;8.10;3.70;;;23.30;1.00;;;;;;5053755;28;20470;-75
2021/06/13 11:33:43;;;;;;;8.80;3.63;;;22.90;1.00;;;;;;5053545;28;20410;-74
2021/06/13 11:36:21;;;;;;;5.97;3.40;;;23.00;1.00;;;;;;5052828;28;20456;-74
2021/06/13 11:38:49;;;;;;;6.33;3.23;;;23.10;1.00;;;;;;5053216;28;20412;-74
2021/06/13 11:41:28;;;;;;;11.63;3.67;;;23.20;1.00;;;;;;5050239;28;20434;-74
2021/06/13 11:44:06;;;;;;;16.63;4.13;;;23.30;1.00;;;;;;5048321;28;20530;-75
2021/06/13 11:46:40;;;;;;;9.90;3.63;;;23.50;1.00;;;;;;5037138;28;20427;-72
2021/06/13 11:49:18;;;;;;;6.90;3.90;;;23.50;1.00;;;;;;5049637;28;20442;-71
2021/06/13 11:51:55;;;;;;;7.13;3.17;;;23.50;1.00;;;;;;5040074;28;20877;-75
2021/06/13 11:54:45;;;;;;;11.33;3.47;;;23.70;1.00;;;;;;5053182;28;20398;-74
2021/06/13 11:57:14;;;;;;;11.20;3.77;;;23.80;1.00;;;;;;5045466;28;20511;-74
2021/06/13 11:59:45;;;;;;;11.30;3.17;;;23.80;1.00;;;;;;5052617;28;20440;-74
2021/06/13 12:02:15;;;;;;;9.60;3.40;;;23.70;1.00;;;;;;5045091;28;20398;-75
2021/06/13 12:04:41;;;;;;;6.33;3.00;;;23.60;1.00;;;;;;5044979;28;20825;-75
2021/06/13 12:07:13;;;;;;;7.00;3.20;;;23.70;1.00;;;;;;5044029;28;20432;-75
2021/06/13 12:09:39;;;;;;;4.30;3.17;;;;;;;;;;5046893;28;20264;-75
2021/06/13 12:12:10;;;;;;;6.93;3.67;;;23.70;1.00;;;;;;5032146;28;20396;-75
2021/06/13 12:14:38;;;;;;;10.90;3.30;;;23.80;1.00;;;;;;5031688;28;20467;-75
2021/06/13 12:17:14;;;;;;;3.90;3.07;;;23.90;1.00;;;;;;5039995;28;20476;-78
2021/06/13 12:19:55;;;;;;;8.73;2.83;;;24.00;1.00;;;;;;5049237;28;20431;-78
2021/06/13 12:22:54;;;;;;;9.27;3.63;;;23.90;1.00;;;;;;5035091;28;20460;-79
2021/06/13 12:28:10;;;;;;;5.83;3.43;;;24.10;1.00;;;;;;5035867;28;20442;-78
2021/06/13 12:30:39;;;;;;;4.87;3.07;;;24.40;1.00;;;;;;5038987;28;20421;-78
2021/06/13 12:33:11;;;;;;;4.80;3.20;;;24.40;1.00;;;;;;5036718;28;20597;-78
2021/06/13 12:35:42;;;;;;;11.57;3.63;;;24.60;1.00;;;;;;5035196;28;20407;-78
2021/06/13 12:38:10;;;;;;;6.80;3.10;;;24.70;1.00;;;;;;5035506;28;20432;-78
2021/06/13 12:40:37;;;;;;;8.20;4.00;;;24.80;1.00;;;;;;5036544;28;20414;-78
2021/06/13 12:43:04;;;;;;;7.80;3.40;;;24.90;1.00;;;;;;5055687;28;20411;-78
2021/06/13 12:45:30;;;;;;;4.87;2.80;;;25.10;1.00;;;;;;5053236;28;20463;-78
2021/06/13 12:47:58;;;;;;;4.20;3.07;;;25.20;1.00;;;;;;5056066;28;20408;-78
2021/06/13 12:50:44;;;;;;;8.50;3.33;;;25.20;1.00;;;;;;5055522;28;20522;-78
2021/06/13 12:53:12;;;;;;;13.30;3.50;;;25.20;1.00;;;;;;5054921;28;20954;-78
2021/06/13 12:55:41;;;;;;;31.47;4.73;;;25.20;1.00;;;;;;5054685;28;20424;-78
2021/06/13 12:58:14;;;;;;;9.70;3.20;;;25.20;1.00;;;;;;5054977;28;20407;-78
2021/06/13 13:00:40;;;;;;;7.93;3.40;;;25.30;1.00;;;;;;5055070;28;20439;-78
2021/06/13 13:03:12;;;;;;;6.70;3.27;;;25.40;1.00;;;;;;5055553;28;20419;-75
2021/06/13 13:05:40;;;;;;;7.93;3.10;;;25.30;1.00;;;;;;5046764;28;20738;-75
2021/06/13 13:08:25;;;;;;;7.13;3.40;;;25.30;1.00;;;;;;5035073;28;20458;-75
2021/06/13 13:11:00;;;;;;;9.37;3.17;;;25.40;1.00;;;;;;5035084;28;20434;-75
2021/06/13 13:13:37;;;;;;;8.07;3.60;;;25.40;1.00;;;;;;5034628;28;20519;-75
2021/06/13 13:16:04;;;;;;;6.20;3.43;;;25.40;1.00;;;;;;5035267;28;21011;-75
2021/06/13 13:18:41;;;;;;;10.47;3.70;;;25.40;1.00;;;;;;5034768;28;20442;-75
2021/06/13 13:21:06;;;;;;;7.20;3.47;;;25.60;1.00;;;;;;5034740;28;20429;-75
2021/06/13 13:23:43;;;;;;;6.87;3.10;;;25.80;1.00;;;;;;5035168;28;20856;-75
2021/06/13 13:26:10;;;;;;;7.80;3.30;;;25.80;1.00;;;;;;5035144;28;20458;-75
2021/06/13 13:28:43;;;;;;;8.07;3.00;;;25.90;1.00;;;;;;5034606;28;20401;-75
2021/06/13 13:31:12;;;;;;;7.67;3.70;;;26.10;1.00;;;;;;5044442;28;20410;-75
2021/06/13 13:33:54;;;;;;;14.23;3.03;;;26.20;1.00;;;;;;5054939;28;20400;-78
2021/06/13 13:36:32;;;;;;;5.13;3.10;;;26.20;1.00;;;;;;5054153;28;20912;-78
2021/06/13 13:38:59;;;;;;;7.53;3.20;;;26.10;1.00;;;;;;5052763;28;20673;-78
2021/06/13 13:41:40;;;;;;;9.80;3.10;;;26.10;1.00;;;;;;5048701;28;20419;-78
2021/06/13 13:44:09;;;;;;;6.90;3.40;;;26.20;1.00;;;;;;5050459;28;20436;-78
2021/06/13 13:46:41;;;;;;;5.57;3.00;;;26.20;1.00;;;;;;5054230;28;20404;-74
2021/06/13 13:49:08;;;;;;;9.13;3.97;;;26.40;1.00;;;;;;5054387;28;20498;-79
2021/06/13 13:51:45;;;;;;;5.80;3.07;;;26.50;1.00;;;;;;5036138;28;20429;-79
2021/06/13 13:54:24;;;;;;;2.63;2.40;;;26.50;1.00;;;;;;5041124;28;20418;-79
2021/06/13 13:56:59;;;;;;;6.67;3.40;;;26.40;1.00;;;;;;5053129;28;20502;-78
2021/06/13 13:59:26;;;;;;;4.20;3.27;;;26.40;1.00;;;;;;5054219;28;20464;-78
2021/06/13 14:01:55;;;;;;;7.40;3.43;;;26.40;1.00;;;;;;5053249;28;20910;-76
2021/06/13 14:04:22;;;;;;;6.43;2.80;;;26.60;1.00;;;;;;5034366;28;20443;-75
2021/06/13 14:06:48;;;;;;;3.87;2.83;;;26.70;1.00;;;;;;5033625;28;20446;-75
2021/06/13 14:09:14;;;;;;;6.93;2.97;;;26.80;1.00;;;;;;5033904;28;20430;-75
2021/06/13 14:11:41;;;;;;;3.73;2.73;;;26.90;1.00;;;;;;5033697;28;20401;-75
2021/06/13 14:14:07;;;;;;;8.63;3.27;;;27.00;1.00;;;;;;5033265;28;20455;-75
2021/06/13 14:16:33;;;;;;;6.87;3.50;;;;;;;;;;5034268;28;20468;-75
2021/06/13 14:18:59;;;;;;;3.90;3.13;;;;;;;;;;5034191;28;20159;-74
2021/06/13 14:21:26;;;;;;;11.37;3.63;;;27.00;1.00;;;;;;5033569;28;20951;-74
2021/06/13 14:23:52;;;;;;;8.90;3.27;;;26.90;1.00;;;;;;5033415;28;20461;-74
2021/06/13 14:26:17;;;;;;;5.53;2.60;;;26.80;1.00;;;;;;5033656;28;20450;-74
2021/06/13 14:28:43;;;;;;;11.07;2.70;;;26.90;1.00;;;;;;5033721;28;20181;-74
2021/06/13 14:31:09;;;;;;;2.73;2.43;;;;;;;;;;5051642;28;20182;-74
2021/06/13 14:33:35;;;;;;;5.57;2.50;;;26.80;1.00;;;;;;5053479;28;20211;-74
2021/06/13 14:36:00;;;;;;;8.90;3.00;;;27.00;1.00;;;;;;5053427;28;20409;-74
2021/06/13 14:38:26;;;;;;;6.17;3.23;;;;;;;;;;5044717;28;20664;-74
2021/06/13 14:40:52;;;;;;;7.40;3.00;;;27.10;1.00;;;;;;5044227;28;20187;-74
2021/06/13 14:43:18;;;;;;;2.70;2.40;;;27.30;1.00;;;;;;5052208;28;20940;-74
2021/06/13 14:45:45;;;;;;;5.17;2.77;;;27.40;1.00;;;;;;5053255;28;20205;-75
2021/06/13 14:48:12;;;;;;;3.57;2.33;;;27.40;1.00;;;;;;5053829;28;20204;-75
2021/06/13 14:50:39;;;;;;;9.10;2.93;;;27.40;1.00;;;;;;5052719;28;20436;-75
2021/06/13 14:53:06;;;;;;;4.90;2.67;;;27.40;1.00;;;;;;5034649;28;20493;-75
2021/06/13 14:55:32;;;;;;;3.97;2.40;;;27.40;1.00;;;;;;5048361;28;20428;-75
2021/06/13 14:57:58;;;;;;;6.67;2.90;;;27.50;1.00;;;;;;5033142;28;20402;-75
2021/06/13 15:00:24;;;;;;;4.80;2.80;;;;;;;;;;5033267;28;20541;-75
2021/06/13 15:02:50;;;;;;;10.10;2.60;;;27.50;1.00;;;;;;5033140;28;20230;-74
2021/06/13 15:05:16;;;;;;;5.33;2.43;;;27.50;1.00;;;;;;5032853;28;20455;-75
2021/06/13 15:07:42;;;;;;;3.33;2.77;;;28.00;1.00;;;;;;5033100;28;20424;-75
2021/06/13 15:10:08;;;;;;;2.40;1.93;;;28.10;1.00;;;;;;5032736;28;20406;-75
2021/06/13 15:12:34;;;;;;;6.67;2.70;;;32.00;1.00;;;;;;5032742;28;20634;-75